sensor_id;sensor_type;location;lat;lon;timestamp;P1;durP1;ratioP1;P2;durP2;ratioP2
7334;SDS011;3708;42.632;23.378;2022-10-17T00:02:22;9.37;;;5.73;;
7334;SDS011;3708;42.632;23.378;2022-10-17T00:04:50;9.40;;;6.17;;
7334;SDS011;3708;42.632;23.378;2022-10-17T00:07:17;8.77;;;5.47;;
7334;SDS011;3708;42.632;23.378;2022-10-17T00:09:44;7.33;;;5.47;;
7334;SDS011;3708;42.632;23.378;2022-10-17T00:12:11;8.03;;;4.93;;
7334;SDS011;3708;42.632;23.378;2022-10-17T00:14:38;7.40;;;4.80;;
7334;SDS011;3708;42.632;23.378;2022-10-17T00:17:05;11.40;;;5.60;;
7334;SDS011;3708;42.632;23.378;2022-10-17T00:19:32;8.10;;;4.80;;
7334;SDS011;3708;42.632;23.378;2022-10-17T00:22:00;6.60;;;4.43;;
7334;SDS011;3708;42.632;23.378;2022-10-17T00:24:29;8.20;;;5.17;;
7334;SDS011;3708;42.632;23.378;2022-10-17T00:26:56;8.40;;;5.03;;
7334;SDS011;3708;42.632;23.378;2022-10-17T00:29:23;8.10;;;4.97;;
7334;SDS011;3708;42.632;23.378;2022-10-17T00:31:52;5.03;;;4.50;;
7334;SDS011;3708;42.632;23.378;2022-10-17T00:34:21;6.27;;;4.80;;
7334;SDS011;3708;42.632;23.378;2022-10-17T00:36:48;5.60;;;3.87;;
7334;SDS011;3708;42.632;23.378;2022-10-17T00:39:16;5.43;;;4.23;;
7334;SDS011;3708;42.632;23.378;2022-10-17T00:41:43;5.53;;;4.20;;
7334;SDS011;3708;42.632;23.378;2022-10-17T00:47:12;4.00;;;3.43;;
7334;SDS011;3708;42.632;23.378;2022-10-17T00:49:42;5.30;;;4.27;;
7334;SDS011;3708;42.632;23.378;2022-10-17T00:52:10;6.00;;;4.43;;
7334;SDS011;3708;42.632;23.378;2022-10-17T00:54:45;6.20;;;4.60;;
7334;SDS011;3708;42.632;23.378;2022-10-17T00:57:14;6.07;;;4.57;;
7334;SDS011;3708;42.632;23.378;2022-10-17T00:59:42;8.40;;;4.70;;
7334;SDS011;3708;42.632;23.378;2022-10-17T01:02:16;7.03;;;4.63;;
7334;SDS011;3708;42.632;23.378;2022-10-17T01:04:48;7.00;;;4.90;;
7334;SDS011;3708;42.632;23.378;2022-10-17T01:07:17;7.70;;;4.70;;
7334;SDS011;3708;42.632;23.378;2022-10-17T01:09:45;6.93;;;5.00;;
7334;SDS011;3708;42.632;23.378;2022-10-17T01:12:15;5.80;;;4.63;;
7334;SDS011;3708;42.632;23.378;2022-10-17T01:14:49;7.50;;;4.40;;
7334;SDS011;3708;42.632;23.378;2022-10-17T01:17:27;5.77;;;4.40;;
7334;SDS011;3708;42.632;23.378;2022-10-17T01:23:16;6.10;;;4.20;;
7334;SDS011;3708;42.632;23.378;2022-10-17T01:25:59;6.03;;;4.90;;
7334;SDS011;3708;42.632;23.378;2022-10-17T01:28:39;6.13;;;4.73;;
7334;SDS011;3708;42.632;23.378;2022-10-17T01:31:29;5.97;;;4.80;;
7334;SDS011;3708;42.632;23.378;2022-10-17T01:34:02;9.90;;;5.63;;
7334;SDS011;3708;42.632;23.378;2022-10-17T01:36:38;7.93;;;4.97;;
7334;SDS011;3708;42.632;23.378;2022-10-17T01:39:14;7.67;;;5.37;;
7334;SDS011;3708;42.632;23.378;2022-10-17T01:41:48;6.50;;;5.00;;
7334;SDS011;3708;42.632;23.378;2022-10-17T01:44:23;7.30;;;4.93;;
7334;SDS011;3708;42.632;23.378;2022-10-17T01:46:57;7.93;;;5.50;;
7334;SDS011;3708;42.632;23.378;2022-10-17T01:49:28;6.83;;;4.80;;
7334;SDS011;3708;42.632;23.378;2022-10-17T01:51:59;5.20;;;4.70;;
7334;SDS011;3708;42.632;23.378;2022-10-17T01:54:31;8.93;;;5.60;;
7334;SDS011;3708;42.632;23.378;2022-10-17T01:57:03;5.87;;;4.97;;
7334;SDS011;3708;42.632;23.378;2022-10-17T01:59:34;10.83;;;5.03;;
7334;SDS011;3708;42.632;23.378;2022-10-17T02:02:07;4.73;;;4.23;;
7334;SDS011;3708;42.632;23.378;2022-10-17T02:04:35;6.87;;;4.37;;
7334;SDS011;3708;42.632;23.378;2022-10-17T02:07:06;7.37;;;5.20;;
7334;SDS011;3708;42.632;23.378;2022-10-17T02:09:33;6.60;;;4.73;;
7334;SDS011;3708;42.632;23.378;2022-10-17T02:12:10;6.93;;;5.13;;
7334;SDS011;3708;42.632;23.378;2022-10-17T02:14:51;7.10;;;5.47;;
7334;SDS011;3708;42.632;23.378;2022-10-17T02:17:32;5.47;;;4.47;;
7334;SDS011;3708;42.632;23.378;2022-10-17T02:20:09;8.23;;;5.03;;
7334;SDS011;3708;42.632;23.378;2022-10-17T02:22:43;6.50;;;5.17;;
7334;SDS011;3708;42.632;23.378;2022-10-17T02:25:16;8.80;;;5.90;;
7334;SDS011;3708;42.632;23.378;2022-10-17T02:27:51;9.00;;;4.70;;
7334;SDS011;3708;42.632;23.378;2022-10-17T02:30:25;8.37;;;4.90;;
7334;SDS011;3708;42.632;23.378;2022-10-17T02:32:59;7.13;;;4.60;;
7334;SDS011;3708;42.632;23.378;2022-10-17T02:35:33;7.97;;;5.23;;
7334;SDS011;3708;42.632;23.378;2022-10-17T02:38:03;6.53;;;5.00;;
7334;SDS011;3708;42.632;23.378;2022-10-17T02:40:33;7.23;;;4.70;;
7334;SDS011;3708;42.632;23.378;2022-10-17T02:43:03;6.27;;;5.20;;
7334;SDS011;3708;42.632;23.378;2022-10-17T02:45:30;10.27;;;5.77;;
7334;SDS011;3708;42.632;23.378;2022-10-17T02:48:03;6.63;;;4.87;;
7334;SDS011;3708;42.632;23.378;2022-10-17T02:50:33;8.13;;;5.23;;
7334;SDS011;3708;42.632;23.378;2022-10-17T02:53:09;6.40;;;5.03;;
7334;SDS011;3708;42.632;23.378;2022-10-17T02:55:40;8.63;;;5.23;;
7334;SDS011;3708;42.632;23.378;2022-10-17T02:58:12;8.43;;;5.67;;
7334;SDS011;3708;42.632;23.378;2022-10-17T03:00:44;10.23;;;5.60;;
7334;SDS011;3708;42.632;23.378;2022-10-17T03:03:22;8.20;;;5.63;;
7334;SDS011;3708;42.632;23.378;2022-10-17T03:05:50;6.73;;;5.47;;
7334;SDS011;3708;42.632;23.378;2022-10-17T03:08:17;6.83;;;5.43;;
7334;SDS011;3708;42.632;23.378;2022-10-17T03:10:46;6.73;;;5.03;;
7334;SDS011;3708;42.632;23.378;2022-10-17T03:13:14;6.37;;;5.57;;
7334;SDS011;3708;42.632;23.378;2022-10-17T03:15:41;8.70;;;5.67;;
7334;SDS011;3708;42.632;23.378;2022-10-17T03:18:08;6.87;;;5.40;;
7334;SDS011;3708;42.632;23.378;2022-10-17T03:20:37;7.07;;;5.63;;
7334;SDS011;3708;42.632;23.378;2022-10-17T03:23:04;9.50;;;6.07;;
7334;SDS011;3708;42.632;23.378;2022-10-17T03:25:31;8.47;;;6.30;;
7334;SDS011;3708;42.632;23.378;2022-10-17T03:27:58;7.53;;;5.77;;
7334;SDS011;3708;42.632;23.378;2022-10-17T03:30:26;6.73;;;5.20;;
7334;SDS011;3708;42.632;23.378;2022-10-17T03:32:53;8.47;;;5.80;;
7334;SDS011;3708;42.632;23.378;2022-10-17T03:35:21;11.20;;;6.30;;
7334;SDS011;3708;42.632;23.378;2022-10-17T03:37:50;7.93;;;5.53;;
7334;SDS011;3708;42.632;23.378;2022-10-17T03:40:17;9.50;;;6.07;;
7334;SDS011;3708;42.632;23.378;2022-10-17T03:42:44;9.40;;;5.93;;
7334;SDS011;3708;42.632;23.378;2022-10-17T03:45:36;10.13;;;5.90;;
7334;SDS011;3708;42.632;23.378;2022-10-17T03:48:09;6.70;;;5.97;;
7334;SDS011;3708;42.632;23.378;2022-10-17T03:50:40;9.43;;;6.10;;
7334;SDS011;3708;42.632;23.378;2022-10-17T03:53:09;8.63;;;6.33;;
7334;SDS011;3708;42.632;23.378;2022-10-17T03:55:36;7.83;;;6.10;;
7334;SDS011;3708;42.632;23.378;2022-10-17T03:58:03;8.73;;;6.40;;
7334;SDS011;3708;42.632;23.378;2022-10-17T04:00:30;8.73;;;6.13;;
7334;SDS011;3708;42.632;23.378;2022-10-17T04:03:00;7.77;;;6.20;;
7334;SDS011;3708;42.632;23.378;2022-10-17T04:05:31;8.30;;;6.37;;
7334;SDS011;3708;42.632;23.378;2022-10-17T04:08:03;8.57;;;6.00;;
7334;SDS011;3708;42.632;23.378;2022-10-17T04:10:32;9.50;;;6.23;;
7334;SDS011;3708;42.632;23.378;2022-10-17T04:13:00;9.13;;;6.10;;
7334;SDS011;3708;42.632;23.378;2022-10-17T04:15:27;10.23;;;6.47;;
7334;SDS011;3708;42.632;23.378;2022-10-17T04:17:54;10.47;;;6.57;;
7334;SDS011;3708;42.632;23.378;2022-10-17T04:20:21;8.73;;;6.43;;
7334;SDS011;3708;42.632;23.378;2022-10-17T04:22:48;9.30;;;6.53;;
7334;SDS011;3708;42.632;23.378;2022-10-17T04:25:15;8.03;;;6.17;;
7334;SDS011;3708;42.632;23.378;2022-10-17T04:27:44;9.87;;;6.30;;
7334;SDS011;3708;42.632;23.378;2022-10-17T04:30:11;8.27;;;6.27;;
7334;SDS011;3708;42.632;23.378;2022-10-17T04:32:37;8.73;;;6.13;;
7334;SDS011;3708;42.632;23.378;2022-10-17T04:35:05;9.57;;;6.23;;
7334;SDS011;3708;42.632;23.378;2022-10-17T04:37:32;8.33;;;6.07;;
7334;SDS011;3708;42.632;23.378;2022-10-17T04:39:59;10.33;;;6.80;;
7334;SDS011;3708;42.632;23.378;2022-10-17T04:42:27;7.70;;;5.67;;
7334;SDS011;3708;42.632;23.378;2022-10-17T04:44:56;9.10;;;6.07;;
7334;SDS011;3708;42.632;23.378;2022-10-17T04:47:23;7.93;;;6.23;;
7334;SDS011;3708;42.632;23.378;2022-10-17T04:49:49;14.50;;;6.93;;
7334;SDS011;3708;42.632;23.378;2022-10-17T04:52:16;12.43;;;6.33;;
7334;SDS011;3708;42.632;23.378;2022-10-17T04:54:43;10.93;;;5.80;;
7334;SDS011;3708;42.632;23.378;2022-10-17T04:57:10;6.50;;;5.20;;
7334;SDS011;3708;42.632;23.378;2022-10-17T04:59:37;12.07;;;6.37;;
7334;SDS011;3708;42.632;23.378;2022-10-17T05:02:05;7.50;;;5.77;;
7334;SDS011;3708;42.632;23.378;2022-10-17T05:04:32;8.03;;;5.90;;
7334;SDS011;3708;42.632;23.378;2022-10-17T05:06:59;8.47;;;6.27;;
7334;SDS011;3708;42.632;23.378;2022-10-17T05:09:26;8.30;;;5.87;;
7334;SDS011;3708;42.632;23.378;2022-10-17T05:11:53;11.47;;;6.10;;
7334;SDS011;3708;42.632;23.378;2022-10-17T05:14:20;7.30;;;5.90;;
7334;SDS011;3708;42.632;23.378;2022-10-17T05:16:47;7.63;;;5.87;;
7334;SDS011;3708;42.632;23.378;2022-10-17T05:19:16;8.30;;;5.83;;
7334;SDS011;3708;42.632;23.378;2022-10-17T05:21:43;9.33;;;6.03;;
7334;SDS011;3708;42.632;23.378;2022-10-17T05:24:11;7.50;;;6.13;;
7334;SDS011;3708;42.632;23.378;2022-10-17T05:26:39;12.07;;;6.13;;
7334;SDS011;3708;42.632;23.378;2022-10-17T05:29:06;7.97;;;5.73;;
7334;SDS011;3708;42.632;23.378;2022-10-17T05:31:34;13.20;;;6.47;;
7334;SDS011;3708;42.632;23.378;2022-10-17T05:34:01;8.33;;;5.73;;
7334;SDS011;3708;42.632;23.378;2022-10-17T05:36:30;10.60;;;5.70;;
7334;SDS011;3708;42.632;23.378;2022-10-17T05:38:57;9.20;;;6.80;;
7334;SDS011;3708;42.632;23.378;2022-10-17T05:41:24;10.37;;;6.93;;
7334;SDS011;3708;42.632;23.378;2022-10-17T05:43:51;8.67;;;6.37;;
7334;SDS011;3708;42.632;23.378;2022-10-17T05:46:18;8.60;;;6.77;;
7334;SDS011;3708;42.632;23.378;2022-10-17T05:48:45;8.87;;;5.70;;
7334;SDS011;3708;42.632;23.378;2022-10-17T05:51:12;9.73;;;6.50;;
7334;SDS011;3708;42.632;23.378;2022-10-17T05:53:40;8.37;;;6.13;;
7334;SDS011;3708;42.632;23.378;2022-10-17T05:56:09;9.57;;;5.73;;
7334;SDS011;3708;42.632;23.378;2022-10-17T05:58:39;8.13;;;6.73;;
7334;SDS011;3708;42.632;23.378;2022-10-17T06:01:06;11.20;;;5.87;;
7334;SDS011;3708;42.632;23.378;2022-10-17T06:03:34;13.77;;;5.73;;
7334;SDS011;3708;42.632;23.378;2022-10-17T06:06:02;7.83;;;5.87;;
7334;SDS011;3708;42.632;23.378;2022-10-17T06:08:33;13.33;;;6.50;;
7334;SDS011;3708;42.632;23.378;2022-10-17T06:11:02;10.70;;;5.60;;
7334;SDS011;3708;42.632;23.378;2022-10-17T06:13:29;9.90;;;5.47;;
7334;SDS011;3708;42.632;23.378;2022-10-17T06:15:56;8.87;;;5.23;;
7334;SDS011;3708;42.632;23.378;2022-10-17T06:18:24;18.07;;;6.27;;
7334;SDS011;3708;42.632;23.378;2022-10-17T06:20:51;10.97;;;5.63;;
7334;SDS011;3708;42.632;23.378;2022-10-17T06:23:18;10.53;;;5.67;;
7334;SDS011;3708;42.632;23.378;2022-10-17T06:25:45;9.77;;;6.80;;
7334;SDS011;3708;42.632;23.378;2022-10-17T06:28:14;9.40;;;6.33;;
7334;SDS011;3708;42.632;23.378;2022-10-17T06:30:41;9.50;;;7.00;;
7334;SDS011;3708;42.632;23.378;2022-10-17T06:33:08;13.33;;;8.53;;
7334;SDS011;3708;42.632;23.378;2022-10-17T06:35:36;12.87;;;8.50;;
7334;SDS011;3708;42.632;23.378;2022-10-17T06:38:03;14.17;;;9.57;;
7334;SDS011;3708;42.632;23.378;2022-10-17T06:40:30;17.30;;;10.13;;
7334;SDS011;3708;42.632;23.378;2022-10-17T06:42:59;16.97;;;10.63;;
7334;SDS011;3708;42.632;23.378;2022-10-17T06:45:28;18.10;;;10.33;;
7334;SDS011;3708;42.632;23.378;2022-10-17T06:47:55;15.77;;;9.60;;
7334;SDS011;3708;42.632;23.378;2022-10-17T06:50:22;15.47;;;9.77;;
7334;SDS011;3708;42.632;23.378;2022-10-17T06:52:49;17.77;;;11.00;;
7334;SDS011;3708;42.632;23.378;2022-10-17T06:55:17;15.63;;;9.97;;
7334;SDS011;3708;42.632;23.378;2022-10-17T06:57:44;13.50;;;9.20;;
7334;SDS011;3708;42.632;23.378;2022-10-17T07:00:11;17.07;;;9.57;;
7334;SDS011;3708;42.632;23.378;2022-10-17T07:02:40;13.53;;;9.67;;
7334;SDS011;3708;42.632;23.378;2022-10-17T07:05:08;12.60;;;9.23;;
7334;SDS011;3708;42.632;23.378;2022-10-17T07:07:35;16.83;;;9.27;;
7334;SDS011;3708;42.632;23.378;2022-10-17T07:10:02;14.60;;;10.07;;
7334;SDS011;3708;42.632;23.378;2022-10-17T07:12:33;16.30;;;9.73;;
7334;SDS011;3708;42.632;23.378;2022-10-17T07:15:01;11.17;;;8.97;;
7334;SDS011;3708;42.632;23.378;2022-10-17T07:17:30;16.70;;;9.07;;
7334;SDS011;3708;42.632;23.378;2022-10-17T07:19:59;16.30;;;8.80;;
7334;SDS011;3708;42.632;23.378;2022-10-17T07:22:26;11.87;;;8.30;;
7334;SDS011;3708;42.632;23.378;2022-10-17T07:25:12;12.60;;;8.27;;
7334;SDS011;3708;42.632;23.378;2022-10-17T07:28:05;17.93;;;8.40;;
7334;SDS011;3708;42.632;23.378;2022-10-17T07:30:32;12.20;;;8.20;;
7334;SDS011;3708;42.632;23.378;2022-10-17T07:32:59;13.47;;;8.03;;
7334;SDS011;3708;42.632;23.378;2022-10-17T07:35:28;13.63;;;7.60;;
7334;SDS011;3708;42.632;23.378;2022-10-17T07:37:55;19.30;;;7.60;;
7334;SDS011;3708;42.632;23.378;2022-10-17T07:40:22;14.03;;;7.83;;
7334;SDS011;3708;42.632;23.378;2022-10-17T07:42:49;13.40;;;7.83;;
7334;SDS011;3708;42.632;23.378;2022-10-17T07:45:16;13.93;;;8.63;;
7334;SDS011;3708;42.632;23.378;2022-10-17T07:47:43;13.80;;;7.97;;
7334;SDS011;3708;42.632;23.378;2022-10-17T07:50:10;11.70;;;7.67;;
7334;SDS011;3708;42.632;23.378;2022-10-17T07:52:38;12.70;;;7.70;;
7334;SDS011;3708;42.632;23.378;2022-10-17T07:55:07;15.20;;;8.43;;
7334;SDS011;3708;42.632;23.378;2022-10-17T07:57:34;14.43;;;8.93;;
7334;SDS011;3708;42.632;23.378;2022-10-17T08:00:01;14.73;;;7.90;;
7334;SDS011;3708;42.632;23.378;2022-10-17T08:02:29;14.60;;;8.43;;
7334;SDS011;3708;42.632;23.378;2022-10-17T08:04:56;14.10;;;8.47;;
7334;SDS011;3708;42.632;23.378;2022-10-17T08:07:23;15.27;;;8.87;;
7334;SDS011;3708;42.632;23.378;2022-10-17T08:09:51;15.83;;;7.80;;
7334;SDS011;3708;42.632;23.378;2022-10-17T08:12:18;14.43;;;8.43;;
7334;SDS011;3708;42.632;23.378;2022-10-17T08:14:46;14.97;;;9.03;;
7334;SDS011;3708;42.632;23.378;2022-10-17T08:17:13;14.60;;;8.67;;
7334;SDS011;3708;42.632;23.378;2022-10-17T08:19:40;16.37;;;8.73;;
7334;SDS011;3708;42.632;23.378;2022-10-17T08:22:07;22.77;;;9.40;;
7334;SDS011;3708;42.632;23.378;2022-10-17T08:24:34;15.63;;;9.03;;
7334;SDS011;3708;42.632;23.378;2022-10-17T08:27:02;14.87;;;8.80;;
7334;SDS011;3708;42.632;23.378;2022-10-17T08:29:35;15.13;;;7.67;;
7334;SDS011;3708;42.632;23.378;2022-10-17T08:32:02;17.97;;;8.13;;
7334;SDS011;3708;42.632;23.378;2022-10-17T08:34:30;15.77;;;8.27;;
7334;SDS011;3708;42.632;23.378;2022-10-17T08:36:57;12.60;;;8.67;;
7334;SDS011;3708;42.632;23.378;2022-10-17T08:39:24;16.57;;;9.73;;
7334;SDS011;3708;42.632;23.378;2022-10-17T08:41:54;22.07;;;9.10;;
7334;SDS011;3708;42.632;23.378;2022-10-17T08:44:35;25.23;;;8.17;;
7334;SDS011;3708;42.632;23.378;2022-10-17T08:47:10;10.40;;;7.63;;
7334;SDS011;3708;42.632;23.378;2022-10-17T08:49:41;10.90;;;6.60;;
7334;SDS011;3708;42.632;23.378;2022-10-17T08:52:15;14.50;;;5.93;;
7334;SDS011;3708;42.632;23.378;2022-10-17T08:54:50;12.50;;;6.27;;
7334;SDS011;3708;42.632;23.378;2022-10-17T08:57:17;9.90;;;6.23;;
7334;SDS011;3708;42.632;23.378;2022-10-17T08:59:48;9.30;;;6.03;;
7334;SDS011;3708;42.632;23.378;2022-10-17T09:02:23;11.10;;;6.50;;
7334;SDS011;3708;42.632;23.378;2022-10-17T09:05:06;10.40;;;5.93;;
7334;SDS011;3708;42.632;23.378;2022-10-17T09:07:48;8.70;;;4.80;;
7334;SDS011;3708;42.632;23.378;2022-10-17T09:10:25;16.27;;;5.73;;
7334;SDS011;3708;42.632;23.378;2022-10-17T09:13:05;13.80;;;4.97;;
7334;SDS011;3708;42.632;23.378;2022-10-17T09:15:44;9.87;;;5.70;;
7334;SDS011;3708;42.632;23.378;2022-10-17T09:18:21;15.77;;;6.47;;
7334;SDS011;3708;42.632;23.378;2022-10-17T09:20:53;14.80;;;6.10;;
7334;SDS011;3708;42.632;23.378;2022-10-17T09:23:24;10.17;;;5.10;;
7334;SDS011;3708;42.632;23.378;2022-10-17T09:25:57;17.03;;;5.70;;
7334;SDS011;3708;42.632;23.378;2022-10-17T09:28:26;17.40;;;5.47;;
7334;SDS011;3708;42.632;23.378;2022-10-17T09:30:58;12.60;;;5.27;;
7334;SDS011;3708;42.632;23.378;2022-10-17T09:33:29;15.80;;;5.40;;
7334;SDS011;3708;42.632;23.378;2022-10-17T09:36:03;8.63;;;5.00;;
7334;SDS011;3708;42.632;23.378;2022-10-17T09:38:35;10.47;;;4.33;;
7334;SDS011;3708;42.632;23.378;2022-10-17T09:41:06;14.30;;;4.73;;
7334;SDS011;3708;42.632;23.378;2022-10-17T09:43:41;15.43;;;4.60;;
7334;SDS011;3708;42.632;23.378;2022-10-17T09:46:11;14.90;;;5.37;;
7334;SDS011;3708;42.632;23.378;2022-10-17T09:48:45;12.30;;;4.33;;
7334;SDS011;3708;42.632;23.378;2022-10-17T09:51:17;15.73;;;4.70;;
7334;SDS011;3708;42.632;23.378;2022-10-17T09:53:45;7.33;;;3.73;;
7334;SDS011;3708;42.632;23.378;2022-10-17T09:56:17;9.00;;;4.23;;
7334;SDS011;3708;42.632;23.378;2022-10-17T09:58:46;9.30;;;3.53;;
7334;SDS011;3708;42.632;23.378;2022-10-17T10:01:18;5.07;;;3.53;;
7334;SDS011;3708;42.632;23.378;2022-10-17T10:03:47;11.83;;;3.63;;
7334;SDS011;3708;42.632;23.378;2022-10-17T10:06:15;10.80;;;4.00;;
7334;SDS011;3708;42.632;23.378;2022-10-17T10:08:50;5.37;;;3.50;;
7334;SDS011;3708;42.632;23.378;2022-10-17T10:11:22;10.00;;;4.23;;
7334;SDS011;3708;42.632;23.378;2022-10-17T10:13:51;8.30;;;3.87;;
7334;SDS011;3708;42.632;23.378;2022-10-17T10:16:21;11.00;;;3.93;;
7334;SDS011;3708;42.632;23.378;2022-10-17T10:18:49;5.87;;;3.53;;
7334;SDS011;3708;42.632;23.378;2022-10-17T10:21:17;8.10;;;2.93;;
7334;SDS011;3708;42.632;23.378;2022-10-17T10:24:01;11.27;;;3.43;;
7334;SDS011;3708;42.632;23.378;2022-10-17T10:26:31;4.87;;;3.33;;
7334;SDS011;3708;42.632;23.378;2022-10-17T10:29:04;6.63;;;3.20;;
7334;SDS011;3708;42.632;23.378;2022-10-17T10:31:46;7.50;;;2.80;;
7334;SDS011;3708;42.632;23.378;2022-10-17T10:34:15;5.70;;;2.70;;
7334;SDS011;3708;42.632;23.378;2022-10-17T10:36:48;5.33;;;3.47;;
7334;SDS011;3708;42.632;23.378;2022-10-17T10:39:34;6.37;;;3.20;;
7334;SDS011;3708;42.632;23.378;2022-10-17T10:42:07;5.27;;;3.67;;
7334;SDS011;3708;42.632;23.378;2022-10-17T10:44:47;3.13;;;2.50;;
7334;SDS011;3708;42.632;23.378;2022-10-17T10:47:18;5.53;;;3.15;;
7334;SDS011;3708;42.632;23.378;2022-10-17T10:49:49;4.85;;;2.60;;
7334;SDS011;3708;42.632;23.378;2022-10-17T10:52:22;7.27;;;2.87;;
7334;SDS011;3708;42.632;23.378;2022-10-17T10:54:58;8.90;;;3.05;;
7334;SDS011;3708;42.632;23.378;2022-10-17T10:57:32;5.22;;;2.72;;
7334;SDS011;3708;42.632;23.378;2022-10-17T11:00:02;4.35;;;3.03;;
7334;SDS011;3708;42.632;23.378;2022-10-17T11:02:39;6.03;;;2.90;;
7334;SDS011;3708;42.632;23.378;2022-10-17T11:05:13;6.35;;;2.92;;
7334;SDS011;3708;42.632;23.378;2022-10-17T11:07:51;4.97;;;2.47;;
7334;SDS011;3708;42.632;23.378;2022-10-17T11:10:27;6.50;;;2.60;;
7334;SDS011;3708;42.632;23.378;2022-10-17T11:13:00;4.53;;;3.25;;
7334;SDS011;3708;42.632;23.378;2022-10-17T11:15:33;4.18;;;2.80;;
7334;SDS011;3708;42.632;23.378;2022-10-17T11:18:07;4.15;;;2.67;;
7334;SDS011;3708;42.632;23.378;2022-10-17T11:20:42;3.10;;;2.60;;
7334;SDS011;3708;42.632;23.378;2022-10-17T11:23:16;6.70;;;3.20;;
7334;SDS011;3708;42.632;23.378;2022-10-17T11:25:46;5.47;;;3.00;;
7334;SDS011;3708;42.632;23.378;2022-10-17T11:28:16;5.72;;;3.15;;
7334;SDS011;3708;42.632;23.378;2022-10-17T11:30:45;3.53;;;2.72;;
7334;SDS011;3708;42.632;23.378;2022-10-17T11:33:19;5.93;;;2.70;;
7334;SDS011;3708;42.632;23.378;2022-10-17T11:35:51;10.75;;;2.88;;
7334;SDS011;3708;42.632;23.378;2022-10-17T11:38:21;8.38;;;3.40;;
7334;SDS011;3708;42.632;23.378;2022-10-17T11:40:55;3.80;;;2.78;;
7334;SDS011;3708;42.632;23.378;2022-10-17T11:43:26;6.68;;;2.42;;
7334;SDS011;3708;42.632;23.378;2022-10-17T11:45:57;5.78;;;2.80;;
7334;SDS011;3708;42.632;23.378;2022-10-17T11:48:31;3.92;;;3.05;;
7334;SDS011;3708;42.632;23.378;2022-10-17T11:51:07;6.57;;;2.78;;
7334;SDS011;3708;42.632;23.378;2022-10-17T11:53:49;6.70;;;2.92;;
7334;SDS011;3708;42.632;23.378;2022-10-17T11:56:21;5.95;;;2.78;;
7334;SDS011;3708;42.632;23.378;2022-10-17T11:58:55;3.40;;;2.92;;
7334;SDS011;3708;42.632;23.378;2022-10-17T12:01:35;5.72;;;3.00;;
7334;SDS011;3708;42.632;23.378;2022-10-17T12:04:14;9.40;;;3.13;;
7334;SDS011;3708;42.632;23.378;2022-10-17T12:06:52;3.92;;;2.92;;
7334;SDS011;3708;42.632;23.378;2022-10-17T12:09:37;5.60;;;2.80;;
7334;SDS011;3708;42.632;23.378;2022-10-17T12:12:10;6.28;;;3.10;;
7334;SDS011;3708;42.632;23.378;2022-10-17T12:14:52;8.65;;;3.00;;
7334;SDS011;3708;42.632;23.378;2022-10-17T12:17:29;3.47;;;2.38;;
7334;SDS011;3708;42.632;23.378;2022-10-17T12:20:26;4.13;;;2.53;;
7334;SDS011;3708;42.632;23.378;2022-10-17T12:23:02;8.48;;;3.35;;
7334;SDS011;3708;42.632;23.378;2022-10-17T12:25:47;6.93;;;2.85;;
7334;SDS011;3708;42.632;23.378;2022-10-17T12:28:19;4.00;;;2.92;;
7334;SDS011;3708;42.632;23.378;2022-10-17T12:30:57;5.45;;;2.70;;
7334;SDS011;3708;42.632;23.378;2022-10-17T12:33:50;5.47;;;2.80;;
7334;SDS011;3708;42.632;23.378;2022-10-17T12:42:28;7.05;;;2.58;;
7334;SDS011;3708;42.632;23.378;2022-10-17T12:51:20;10.43;;;2.60;;
7334;SDS011;3708;42.632;23.378;2022-10-17T12:53:58;3.72;;;2.78;;
7334;SDS011;3708;42.632;23.378;2022-10-17T12:56:29;3.58;;;2.45;;
7334;SDS011;3708;42.632;23.378;2022-10-17T12:59:06;7.43;;;2.78;;
7334;SDS011;3708;42.632;23.378;2022-10-17T13:01:45;2.88;;;2.45;;
7334;SDS011;3708;42.632;23.378;2022-10-17T13:04:23;4.40;;;2.85;;
7334;SDS011;3708;42.632;23.378;2022-10-17T13:07:11;4.28;;;2.40;;
7334;SDS011;3708;42.632;23.378;2022-10-17T13:09:56;4.10;;;2.92;;
7334;SDS011;3708;42.632;23.378;2022-10-17T13:12:29;4.90;;;2.53;;
7334;SDS011;3708;42.632;23.378;2022-10-17T13:15:02;3.25;;;2.50;;
7334;SDS011;3708;42.632;23.378;2022-10-17T13:17:42;8.32;;;3.15;;
7334;SDS011;3708;42.632;23.378;2022-10-17T13:20:16;4.38;;;2.20;;
7334;SDS011;3708;42.632;23.378;2022-10-17T13:22:53;9.32;;;2.80;;
7334;SDS011;3708;42.632;23.378;2022-10-17T13:25:29;4.15;;;2.30;;
7334;SDS011;3708;42.632;23.378;2022-10-17T13:28:11;2.88;;;2.20;;
7334;SDS011;3708;42.632;23.378;2022-10-17T13:30:44;3.47;;;2.10;;
7334;SDS011;3708;42.632;23.378;2022-10-17T13:33:18;4.30;;;2.25;;
7334;SDS011;3708;42.632;23.378;2022-10-17T13:35:58;3.40;;;2.00;;
7334;SDS011;3708;42.632;23.378;2022-10-17T13:38:32;3.65;;;2.10;;
7334;SDS011;3708;42.632;23.378;2022-10-17T13:41:04;4.95;;;2.00;;
7334;SDS011;3708;42.632;23.378;2022-10-17T13:43:40;4.55;;;2.22;;
7334;SDS011;3708;42.632;23.378;2022-10-17T13:46:23;5.03;;;2.53;;
7334;SDS011;3708;42.632;23.378;2022-10-17T13:48:57;2.88;;;2.20;;
7334;SDS011;3708;42.632;23.378;2022-10-17T13:51:28;2.70;;;1.52;;
7334;SDS011;3708;42.632;23.378;2022-10-17T13:54:15;4.43;;;2.10;;
7334;SDS011;3708;42.632;23.378;2022-10-17T13:57:16;4.68;;;1.88;;
7334;SDS011;3708;42.632;23.378;2022-10-17T14:00:04;6.43;;;2.00;;
7334;SDS011;3708;42.632;23.378;2022-10-17T14:02:51;5.10;;;2.30;;
7334;SDS011;3708;42.632;23.378;2022-10-17T14:05:22;4.75;;;1.80;;
7334;SDS011;3708;42.632;23.378;2022-10-17T14:08:19;5.95;;;3.00;;
7334;SDS011;3708;42.632;23.378;2022-10-17T14:10:50;4.28;;;1.85;;
7334;SDS011;3708;42.632;23.378;2022-10-17T14:13:30;3.22;;;2.05;;
7334;SDS011;3708;42.632;23.378;2022-10-17T14:16:05;3.85;;;2.40;;
7334;SDS011;3708;42.632;23.378;2022-10-17T14:18:36;6.28;;;2.50;;
7334;SDS011;3708;42.632;23.378;2022-10-17T14:21:05;8.55;;;2.80;;
7334;SDS011;3708;42.632;23.378;2022-10-17T14:23:38;4.35;;;2.53;;
7334;SDS011;3708;42.632;23.378;2022-10-17T14:26:13;2.97;;;2.40;;
7334;SDS011;3708;42.632;23.378;2022-10-17T14:28:48;7.38;;;3.00;;
7334;SDS011;3708;42.632;23.378;2022-10-17T14:31:29;10.00;;;3.47;;
7334;SDS011;3708;42.632;23.378;2022-10-17T14:34:03;4.80;;;2.88;;
7334;SDS011;3708;42.632;23.378;2022-10-17T14:36:36;6.65;;;3.20;;
7334;SDS011;3708;42.632;23.378;2022-10-17T14:40:37;7.20;;;3.05;;
7334;SDS011;3708;42.632;23.378;2022-10-17T14:42:17;8.10;;;3.22;;
7334;SDS011;3708;42.632;23.378;2022-10-17T14:44:57;5.68;;;3.17;;
7334;SDS011;3708;42.632;23.378;2022-10-17T14:47:59;10.63;;;3.08;;
7334;SDS011;3708;42.632;23.378;2022-10-17T14:50:33;7.35;;;3.15;;
7334;SDS011;3708;42.632;23.378;2022-10-17T14:53:35;7.95;;;3.60;;
7334;SDS011;3708;42.632;23.378;2022-10-17T14:56:20;5.13;;;3.47;;
7334;SDS011;3708;42.632;23.378;2022-10-17T14:59:25;11.55;;;3.67;;
7334;SDS011;3708;42.632;23.378;2022-10-17T15:05:23;8.93;;;3.95;;
7334;SDS011;3708;42.632;23.378;2022-10-17T15:08:18;7.70;;;3.57;;
7334;SDS011;3708;42.632;23.378;2022-10-17T15:11:14;10.40;;;3.90;;
7334;SDS011;3708;42.632;23.378;2022-10-17T15:13:59;5.23;;;3.37;;
7334;SDS011;3708;42.632;23.378;2022-10-17T15:16:29;9.17;;;4.40;;
7334;SDS011;3708;42.632;23.378;2022-10-17T15:19:00;10.30;;;4.70;;
7334;SDS011;3708;42.632;23.378;2022-10-17T15:21:31;11.60;;;5.03;;
7334;SDS011;3708;42.632;23.378;2022-10-17T15:24:03;7.97;;;4.07;;
7334;SDS011;3708;42.632;23.378;2022-10-17T15:26:31;7.53;;;5.10;;
7334;SDS011;3708;42.632;23.378;2022-10-17T15:29:26;11.70;;;4.67;;
7334;SDS011;3708;42.632;23.378;2022-10-17T15:32:11;6.60;;;3.97;;
7334;SDS011;3708;42.632;23.378;2022-10-17T15:35:03;8.83;;;3.80;;
7334;SDS011;3708;42.632;23.378;2022-10-17T15:44:05;13.93;;;4.07;;
7334;SDS011;3708;42.632;23.378;2022-10-17T15:53:23;11.83;;;4.90;;
7334;SDS011;3708;42.632;23.378;2022-10-17T15:56:01;7.60;;;4.50;;
7334;SDS011;3708;42.632;23.378;2022-10-17T15:58:33;10.43;;;4.43;;
7334;SDS011;3708;42.632;23.378;2022-10-17T16:01:20;13.03;;;5.53;;
7334;SDS011;3708;42.632;23.378;2022-10-17T16:04:03;13.53;;;5.47;;
7334;SDS011;3708;42.632;23.378;2022-10-17T16:06:30;9.33;;;4.97;;